sensor_id;sensor_type;location;lat;lon;timestamp;temperature;humidity
60027;DHT22;45891;53.006;6.512;2023-04-30T00:02:03;6.60;99.90
60027;DHT22;45891;53.006;6.512;2023-04-30T00:04:29;6.60;99.90
60027;DHT22;45891;53.006;6.512;2023-04-30T00:06:55;6.50;99.90
60027;DHT22;45891;53.006;6.512;2023-04-30T00:09:21;6.50;99.90
60027;DHT22;45891;53.006;6.512;2023-04-30T00:11:47;6.40;99.90
60027;DHT22;45891;53.006;6.512;2023-04-30T00:14:13;6.40;99.90
60027;DHT22;45891;53.006;6.512;2023-04-30T00:16:39;6.40;99.90
60027;DHT22;45891;53.006;6.512;2023-04-30T00:19:06;6.30;99.90
60027;DHT22;45891;53.006;6.512;2023-04-30T00:21:33;6.30;99.90
60027;DHT22;45891;53.006;6.512;2023-04-30T00:23:59;6.30;99.90
60027;DHT22;45891;53.006;6.512;2023-04-30T00:26:25;6.30;99.90
60027;DHT22;45891;53.006;6.512;2023-04-30T00:28:51;6.20;99.90
60027;DHT22;45891;53.006;6.512;2023-04-30T00:31:18;6.20;99.90
60027;DHT22;45891;53.006;6.512;2023-04-30T00:33:44;6.10;99.90
60027;DHT22;45891;53.006;6.512;2023-04-30T00:36:10;6.10;99.90
60027;DHT22;45891;53.006;6.512;2023-04-30T00:38:36;6.10;99.90
60027;DHT22;45891;53.006;6.512;2023-04-30T00:41:03;6.10;99.90
60027;DHT22;45891;53.006;6.512;2023-04-30T00:43:29;6.10;99.90
60027;DHT22;45891;53.006;6.512;2023-04-30T00:45:55;6.00;99.90
60027;DHT22;45891;53.006;6.512;2023-04-30T00:48:21;6.00;99.90
60027;DHT22;45891;53.006;6.512;2023-04-30T00:50:47;6.00;99.90
60027;DHT22;45891;53.006;6.512;2023-04-30T00:53:13;6.00;99.90
60027;DHT22;45891;53.006;6.512;2023-04-30T00:55:41;6.00;99.90
60027;DHT22;45891;53.006;6.512;2023-04-30T00:58:08;5.90;99.90
60027;DHT22;45891;53.006;6.512;2023-04-30T01:00:35;5.90;99.90
60027;DHT22;45891;53.006;6.512;2023-04-30T01:03:01;5.90;99.90
60027;DHT22;45891;53.006;6.512;2023-04-30T01:05:27;5.90;99.90
60027;DHT22;45891;53.006;6.512;2023-04-30T01:07:55;5.80;99.90
60027;DHT22;45891;53.006;6.512;2023-04-30T01:10:25;5.80;99.90
60027;DHT22;45891;53.006;6.512;2023-04-30T01:13:09;5.70;99.90
60027;DHT22;45891;53.006;6.512;2023-04-30T01:15:45;5.70;99.90
60027;DHT22;45891;53.006;6.512;2023-04-30T01:18:18;5.70;99.90
60027;DHT22;45891;53.006;6.512;2023-04-30T01:20:57;5.70;99.90
60027;DHT22;45891;53.006;6.512;2023-04-30T01:23:47;5.60;99.90
60027;DHT22;45891;53.006;6.512;2023-04-30T01:26:43;5.60;99.90
60027;DHT22;45891;53.006;6.512;2023-04-30T01:29:16;5.50;99.90
60027;DHT22;45891;53.006;6.512;2023-04-30T01:31:43;5.50;99.90
60027;DHT22;45891;53.006;6.512;2023-04-30T01:34:10;5.50;99.90
60027;DHT22;45891;53.006;6.512;2023-04-30T01:36:50;5.50;99.90
60027;DHT22;45891;53.006;6.512;2023-04-30T01:39:27;5.50;99.90
60027;DHT22;45891;53.006;6.512;2023-04-30T01:42:16;5.40;99.90
60027;DHT22;45891;53.006;6.512;2023-04-30T01:47:38;5.30;99.90
60027;DHT22;45891;53.006;6.512;2023-04-30T01:52:59;5.30;99.90
60027;DHT22;45891;53.006;6.512;2023-04-30T01:55:49;5.20;99.90
60027;DHT22;45891;53.006;6.512;2023-04-30T01:58:16;5.20;99.90
60027;DHT22;45891;53.006;6.512;2023-04-30T02:00:43;5.10;99.90
60027;DHT22;45891;53.006;6.512;2023-04-30T02:03:10;5.10;99.90
60027;DHT22;45891;53.006;6.512;2023-04-30T02:05:36;5.00;99.90
60027;DHT22;45891;53.006;6.512;2023-04-30T02:08:02;5.00;99.90
60027;DHT22;45891;53.006;6.512;2023-04-30T02:10:28;4.90;99.90
60027;DHT22;45891;53.006;6.512;2023-04-30T02:12:55;4.90;99.90
60027;DHT22;45891;53.006;6.512;2023-04-30T02:15:21;4.90;99.90
60027;DHT22;45891;53.006;6.512;2023-04-30T02:17:47;4.80;99.90
60027;DHT22;45891;53.006;6.512;2023-04-30T02:20:13;4.90;99.90
60027;DHT22;45891;53.006;6.512;2023-04-30T02:22:39;4.80;99.90
60027;DHT22;45891;53.006;6.512;2023-04-30T02:25:06;4.90;99.90
60027;DHT22;45891;53.006;6.512;2023-04-30T02:27:32;4.80;99.90
60027;DHT22;45891;53.006;6.512;2023-04-30T02:29:59;4.90;99.90
60027;DHT22;45891;53.006;6.512;2023-04-30T02:32:25;4.80;99.90
60027;DHT22;45891;53.006;6.512;2023-04-30T02:34:51;4.80;99.90
60027;DHT22;45891;53.006;6.512;2023-04-30T02:37:17;4.80;99.90
60027;DHT22;45891;53.006;6.512;2023-04-30T02:39:43;4.90;99.90
60027;DHT22;45891;53.006;6.512;2023-04-30T02:42:09;4.90;99.90
60027;DHT22;45891;53.006;6.512;2023-04-30T02:44:36;5.00;99.90
60027;DHT22;45891;53.006;6.512;2023-04-30T02:47:02;5.10;99.90
60027;DHT22;45891;53.006;6.512;2023-04-30T02:49:28;5.10;99.90
60027;DHT22;45891;53.006;6.512;2023-04-30T02:51:54;5.10;99.90
60027;DHT22;45891;53.006;6.512;2023-04-30T02:54:21;5.20;99.90
60027;DHT22;45891;53.006;6.512;2023-04-30T02:56:47;5.20;99.90
60027;DHT22;45891;53.006;6.512;2023-04-30T02:59:13;5.20;99.90
60027;DHT22;45891;53.006;6.512;2023-04-30T03:01:39;5.20;99.90
60027;DHT22;45891;53.006;6.512;2023-04-30T03:04:05;5.20;99.90
60027;DHT22;45891;53.006;6.512;2023-04-30T03:06:31;5.20;99.90
60027;DHT22;45891;53.006;6.512;2023-04-30T03:08:58;5.20;99.90
60027;DHT22;45891;53.006;6.512;2023-04-30T03:11:24;5.10;99.90
60027;DHT22;45891;53.006;6.512;2023-04-30T03:13:50;5.10;99.90
60027;DHT22;45891;53.006;6.512;2023-04-30T03:16:18;5.10;99.90
60027;DHT22;45891;53.006;6.512;2023-04-30T03:18:48;5.00;99.90
60027;DHT22;45891;53.006;6.512;2023-04-30T03:21:14;5.10;99.90
60027;DHT22;45891;53.006;6.512;2023-04-30T03:23:40;5.10;99.90
60027;DHT22;45891;53.006;6.512;2023-04-30T03:26:07;5.10;99.90
60027;DHT22;45891;53.006;6.512;2023-04-30T03:28:33;5.10;99.90
60027;DHT22;45891;53.006;6.512;2023-04-30T03:31:01;5.10;99.90
60027;DHT22;45891;53.006;6.512;2023-04-30T03:33:38;5.10;99.90
60027;DHT22;45891;53.006;6.512;2023-04-30T03:36:05;5.20;99.90
60027;DHT22;45891;53.006;6.512;2023-04-30T03:38:31;5.20;99.90
60027;DHT22;45891;53.006;6.512;2023-04-30T03:40:57;5.20;99.90
60027;DHT22;45891;53.006;6.512;2023-04-30T03:43:23;5.30;99.90
60027;DHT22;45891;53.006;6.512;2023-04-30T03:45:49;5.30;99.90
60027;DHT22;45891;53.006;6.512;2023-04-30T03:48:15;5.30;99.90
60027;DHT22;45891;53.006;6.512;2023-04-30T03:50:41;5.30;99.90
60027;DHT22;45891;53.006;6.512;2023-04-30T03:53:08;5.30;99.90
60027;DHT22;45891;53.006;6.512;2023-04-30T03:55:34;5.40;99.90
60027;DHT22;45891;53.006;6.512;2023-04-30T03:58:00;5.40;99.90
60027;DHT22;45891;53.006;6.512;2023-04-30T04:00:26;5.40;99.90
60027;DHT22;45891;53.006;6.512;2023-04-30T04:02:53;5.40;99.90
60027;DHT22;45891;53.006;6.512;2023-04-30T04:05:19;5.40;99.90
60027;DHT22;45891;53.006;6.512;2023-04-30T04:07:46;5.50;99.90
60027;DHT22;45891;53.006;6.512;2023-04-30T04:10:12;5.50;99.90
60027;DHT22;45891;53.006;6.512;2023-04-30T04:12:38;5.50;99.90
60027;DHT22;45891;53.006;6.512;2023-04-30T04:15:04;5.60;99.90
60027;DHT22;45891;53.006;6.512;2023-04-30T04:17:30;5.60;99.90
60027;DHT22;45891;53.006;6.512;2023-04-30T04:19:57;5.60;99.90
60027;DHT22;45891;53.006;6.512;2023-04-30T04:22:23;5.60;99.90
60027;DHT22;45891;53.006;6.512;2023-04-30T04:24:49;5.60;99.90
60027;DHT22;45891;53.006;6.512;2023-04-30T04:27:16;5.70;99.90
60027;DHT22;45891;53.006;6.512;2023-04-30T04:29:43;5.70;99.90
60027;DHT22;45891;53.006;6.512;2023-04-30T04:32:09;5.70;99.90
60027;DHT22;45891;53.006;6.512;2023-04-30T04:34:37;5.80;99.90
60027;DHT22;45891;53.006;6.512;2023-04-30T04:37:04;5.80;99.90
60027;DHT22;45891;53.006;6.512;2023-04-30T04:39:30;5.80;99.90
60027;DHT22;45891;53.006;6.512;2023-04-30T04:41:56;5.80;99.90
60027;DHT22;45891;53.006;6.512;2023-04-30T04:44:23;5.80;99.90
60027;DHT22;45891;53.006;6.512;2023-04-30T04:46:49;5.80;99.90
60027;DHT22;45891;53.006;6.512;2023-04-30T04:49:18;5.70;99.90
60027;DHT22;45891;53.006;6.512;2023-04-30T04:51:45;5.70;99.90
60027;DHT22;45891;53.006;6.512;2023-04-30T04:54:11;5.70;99.90
60027;DHT22;45891;53.006;6.512;2023-04-30T04:56:37;5.80;99.90
60027;DHT22;45891;53.006;6.512;2023-04-30T04:59:04;5.80;99.90
60027;DHT22;45891;53.006;6.512;2023-04-30T05:01:30;5.90;99.90
60027;DHT22;45891;53.006;6.512;2023-04-30T05:03:56;6.00;99.90
60027;DHT22;45891;53.006;6.512;2023-04-30T05:06:22;6.10;99.90
60027;DHT22;45891;53.006;6.512;2023-04-30T05:08:48;6.20;99.90
60027;DHT22;45891;53.006;6.512;2023-04-30T05:11:14;6.30;99.90
60027;DHT22;45891;53.006;6.512;2023-04-30T05:13:41;6.40;99.90
60027;DHT22;45891;53.006;6.512;2023-04-30T05:16:07;6.60;99.90
60027;DHT22;45891;53.006;6.512;2023-04-30T05:18:33;6.80;99.90
60027;DHT22;45891;53.006;6.512;2023-04-30T05:20:59;7.10;99.90
60027;DHT22;45891;53.006;6.512;2023-04-30T05:23:25;7.50;99.90
60027;DHT22;45891;53.006;6.512;2023-04-30T05:25:53;7.70;99.90
60027;DHT22;45891;53.006;6.512;2023-04-30T05:28:20;7.80;99.90
60027;DHT22;45891;53.006;6.512;2023-04-30T05:30:46;7.90;99.90
60027;DHT22;45891;53.006;6.512;2023-04-30T05:33:12;8.00;99.90
60027;DHT22;45891;53.006;6.512;2023-04-30T05:35:38;8.30;99.90
60027;DHT22;45891;53.006;6.512;2023-04-30T05:38:04;8.40;99.90
60027;DHT22;45891;53.006;6.512;2023-04-30T05:40:31;8.60;99.90
60027;DHT22;45891;53.006;6.512;2023-04-30T05:42:57;8.90;99.90
60027;DHT22;45891;53.006;6.512;2023-04-30T05:45:23;9.30;99.90
60027;DHT22;45891;53.006;6.512;2023-04-30T05:47:49;9.60;99.90
60027;DHT22;45891;53.006;6.512;2023-04-30T05:50:15;9.90;99.90
60027;DHT22;45891;53.006;6.512;2023-04-30T05:52:41;10.20;99.90
60027;DHT22;45891;53.006;6.512;2023-04-30T05:55:08;10.50;99.90
60027;DHT22;45891;53.006;6.512;2023-04-30T05:57:34;10.60;99.90
60027;DHT22;45891;53.006;6.512;2023-04-30T06:00:00;10.80;99.90
60027;DHT22;45891;53.006;6.512;2023-04-30T06:02:26;11.10;99.90
60027;DHT22;45891;53.006;6.512;2023-04-30T06:04:52;11.40;99.90
60027;DHT22;45891;53.006;6.512;2023-04-30T06:07:19;11.60;99.90
60027;DHT22;45891;53.006;6.512;2023-04-30T06:09:45;11.70;99.90
60027;DHT22;45891;53.006;6.512;2023-04-30T06:12:11;11.90;99.90
60027;DHT22;45891;53.006;6.512;2023-04-30T06:14:37;12.10;99.90
60027;DHT22;45891;53.006;6.512;2023-04-30T06:17:03;11.70;99.90
60027;DHT22;45891;53.006;6.512;2023-04-30T06:19:29;11.40;99.90
60027;DHT22;45891;53.006;6.512;2023-04-30T06:21:55;11.20;99.90
60027;DHT22;45891;53.006;6.512;2023-04-30T06:24:21;11.40;99.90
60027;DHT22;45891;53.006;6.512;2023-04-30T06:26:47;11.60;99.90
60027;DHT22;45891;53.006;6.512;2023-04-30T06:29:13;11.40;99.90
60027;DHT22;45891;53.006;6.512;2023-04-30T06:31:39;11.20;99.90
60027;DHT22;45891;53.006;6.512;2023-04-30T06:34:05;11.10;99.90
60027;DHT22;45891;53.006;6.512;2023-04-30T06:36:32;10.90;99.90
60027;DHT22;45891;53.006;6.512;2023-04-30T06:38:58;10.80;99.90
60027;DHT22;45891;53.006;6.512;2023-04-30T06:41:24;10.80;99.90
60027;DHT22;45891;53.006;6.512;2023-04-30T06:43:50;10.80;99.90
60027;DHT22;45891;53.006;6.512;2023-04-30T06:46:16;10.70;99.90
60027;DHT22;45891;53.006;6.512;2023-04-30T06:48:42;10.70;99.90
60027;DHT22;45891;53.006;6.512;2023-04-30T06:51:08;10.70;99.90
60027;DHT22;45891;53.006;6.512;2023-04-30T06:53:34;11.10;99.90
60027;DHT22;45891;53.006;6.512;2023-04-30T06:56:01;11.60;99.90
60027;DHT22;45891;53.006;6.512;2023-04-30T06:58:27;12.00;99.90
60027;DHT22;45891;53.006;6.512;2023-04-30T07:00:53;12.50;99.90
60027;DHT22;45891;53.006;6.512;2023-04-30T07:03:19;13.20;99.90
60027;DHT22;45891;53.006;6.512;2023-04-30T07:05:46;13.70;99.90
60027;DHT22;45891;53.006;6.512;2023-04-30T07:08:12;13.80;99.90
60027;DHT22;45891;53.006;6.512;2023-04-30T07:10:39;13.30;99.90
60027;DHT22;45891;53.006;6.512;2023-04-30T07:13:05;13.10;99.90
60027;DHT22;45891;53.006;6.512;2023-04-30T07:15:33;12.90;99.90
60027;DHT22;45891;53.006;6.512;2023-04-30T07:17:59;13.30;99.90
60027;DHT22;45891;53.006;6.512;2023-04-30T07:20:25;13.70;99.90
60027;DHT22;45891;53.006;6.512;2023-04-30T07:22:51;14.00;99.90
60027;DHT22;45891;53.006;6.512;2023-04-30T07:25:19;14.20;99.90
60027;DHT22;45891;53.006;6.512;2023-04-30T07:27:45;14.30;99.90
60027;DHT22;45891;53.006;6.512;2023-04-30T07:30:11;14.40;99.90
60027;DHT22;45891;53.006;6.512;2023-04-30T07:32:38;14.60;99.90
60027;DHT22;45891;53.006;6.512;2023-04-30T07:35:06;14.80;99.90
60027;DHT22;45891;53.006;6.512;2023-04-30T07:37:32;15.10;99.90
60027;DHT22;45891;53.006;6.512;2023-04-30T07:39:58;15.30;99.60
60027;DHT22;45891;53.006;6.512;2023-04-30T07:42:24;15.60;99.90
60027;DHT22;45891;53.006;6.512;2023-04-30T07:44:51;15.40;99.90
60027;DHT22;45891;53.006;6.512;2023-04-30T07:47:17;15.80;99.90
60027;DHT22;45891;53.006;6.512;2023-04-30T07:49:48;16.10;98.60
60027;DHT22;45891;53.006;6.512;2023-04-30T07:52:14;16.10;98.60
60027;DHT22;45891;53.006;6.512;2023-04-30T07:54:40;16.10;99.00
60027;DHT22;45891;53.006;6.512;2023-04-30T07:57:06;16.30;99.10
60027;DHT22;45891;53.006;6.512;2023-04-30T07:59:32;16.70;99.20
60027;DHT22;45891;53.006;6.512;2023-04-30T08:01:58;16.90;98.70
60027;DHT22;45891;53.006;6.512;2023-04-30T08:04:24;17.20;99.20
60027;DHT22;45891;53.006;6.512;2023-04-30T08:06:51;17.60;97.60
60027;DHT22;45891;53.006;6.512;2023-04-30T08:09:17;17.80;97.70
60027;DHT22;45891;53.006;6.512;2023-04-30T08:11:43;17.70;96.50
60027;DHT22;45891;53.006;6.512;2023-04-30T08:14:09;17.80;97.60
60027;DHT22;45891;53.006;6.512;2023-04-30T08:16:35;17.60;96.60
60027;DHT22;45891;53.006;6.512;2023-04-30T08:19:01;17.60;96.70
60027;DHT22;45891;53.006;6.512;2023-04-30T08:21:28;17.80;97.10
60027;DHT22;45891;53.006;6.512;2023-04-30T08:23:55;17.50;95.40
60027;DHT22;45891;53.006;6.512;2023-04-30T08:26:22;17.30;96.00
60027;DHT22;45891;53.006;6.512;2023-04-30T08:28:48;17.00;95.50
60027;DHT22;45891;53.006;6.512;2023-04-30T08:31:14;16.80;95.50
60027;DHT22;45891;53.006;6.512;2023-04-30T08:33:40;16.60;95.60
60027;DHT22;45891;53.006;6.512;2023-04-30T08:36:06;16.70;95.90
60027;DHT22;45891;53.006;6.512;2023-04-30T08:38:32;16.80;95.50
60027;DHT22;45891;53.006;6.512;2023-04-30T08:41:08;16.60;95.70
60027;DHT22;45891;53.006;6.512;2023-04-30T08:43:36;16.40;95.70
60027;DHT22;45891;53.006;6.512;2023-04-30T08:46:05;16.20;96.00
60027;DHT22;45891;53.006;6.512;2023-04-30T08:48:32;16.50;96.30
60027;DHT22;45891;53.006;6.512;2023-04-30T08:51:02;16.70;95.80
60027;DHT22;45891;53.006;6.512;2023-04-30T08:53:30;16.80;95.80
60027;DHT22;45891;53.006;6.512;2023-04-30T08:55:59;16.60;95.30
60027;DHT22;45891;53.006;6.512;2023-04-30T08:58:25;16.40;95.50
60027;DHT22;45891;53.006;6.512;2023-04-30T09:00:51;16.90;96.00
60027;DHT22;45891;53.006;6.512;2023-04-30T09:03:17;17.40;95.70
60027;DHT22;45891;53.006;6.512;2023-04-30T09:05:43;17.90;95.60
60027;DHT22;45891;53.006;6.512;2023-04-30T09:08:16;18.10;95.00
60027;DHT22;45891;53.006;6.512;2023-04-30T09:10:43;18.50;95.20
60027;DHT22;45891;53.006;6.512;2023-04-30T09:13:09;19.20;95.30
60027;DHT22;45891;53.006;6.512;2023-04-30T09:15:38;19.50;94.60
60027;DHT22;45891;53.006;6.512;2023-04-30T09:18:15;19.10;93.80
60027;DHT22;45891;53.006;6.512;2023-04-30T09:21:00;18.60;93.90
60027;DHT22;45891;53.006;6.512;2023-04-30T09:23:27;18.50;93.20
60027;DHT22;45891;53.006;6.512;2023-04-30T09:25:53;18.30;94.00
60027;DHT22;45891;53.006;6.512;2023-04-30T09:28:19;18.70;94.00
60027;DHT22;45891;53.006;6.512;2023-04-30T09:30:50;18.60;94.10
60027;DHT22;45891;53.006;6.512;2023-04-30T09:33:17;18.70;93.80
60027;DHT22;45891;53.006;6.512;2023-04-30T09:35:43;18.60;94.10
60027;DHT22;45891;53.006;6.512;2023-04-30T09:38:27;18.70;94.00
60027;DHT22;45891;53.006;6.512;2023-04-30T09:40:54;18.50;92.40
60027;DHT22;45891;53.006;6.512;2023-04-30T09:43:20;18.30;93.60
60027;DHT22;45891;53.006;6.512;2023-04-30T09:45:47;18.00;93.00
60027;DHT22;45891;53.006;6.512;2023-04-30T09:48:23;17.50;93.20
60027;DHT22;45891;53.006;6.512;2023-04-30T09:50:50;17.70;93.60
60027;DHT22;45891;53.006;6.512;2023-04-30T09:53:17;18.00;93.10
60027;DHT22;45891;53.006;6.512;2023-04-30T09:55:45;18.00;92.30
60027;DHT22;45891;53.006;6.512;2023-04-30T09:58:12;17.90;93.20
60027;DHT22;45891;53.006;6.512;2023-04-30T10:00:39;18.10;92.50
60027;DHT22;45891;53.006;6.512;2023-04-30T10:03:10;18.20;92.90
60027;DHT22;45891;53.006;6.512;2023-04-30T10:05:41;18.80;93.00
60027;DHT22;45891;53.006;6.512;2023-04-30T10:08:26;19.30;93.00
60027;DHT22;45891;53.006;6.512;2023-04-30T10:11:02;20.70;91.20
60027;DHT22;45891;53.006;6.512;2023-04-30T10:13:31;20.30;91.90
60027;DHT22;45891;53.006;6.512;2023-04-30T10:16:02;20.60;92.30
60027;DHT22;45891;53.006;6.512;2023-04-30T10:18:38;21.30;91.30
60027;DHT22;45891;53.006;6.512;2023-04-30T10:21:06;22.00;90.90
60027;DHT22;45891;53.006;6.512;2023-04-30T10:23:37;22.40;90.40
60027;DHT22;45891;53.006;6.512;2023-04-30T10:26:04;23.00;91.00
60027;DHT22;45891;53.006;6.512;2023-04-30T10:28:31;23.40;90.90
60027;DHT22;45891;53.006;6.512;2023-04-30T10:30:58;23.60;90.70
60027;DHT22;45891;53.006;6.512;2023-04-30T10:36:27;24.60;90.20
60027;DHT22;45891;53.006;6.512;2023-04-30T10:38:57;24.90;90.00
60027;DHT22;45891;53.006;6.512;2023-04-30T10:41:25;25.20;89.60
60027;DHT22;45891;53.006;6.512;2023-04-30T10:43:56;25.20;88.00
60027;DHT22;45891;53.006;6.512;2023-04-30T10:46:23;24.20;85.60
60027;DHT22;45891;53.006;6.512;2023-04-30T10:48:52;24.00;85.50
60027;DHT22;45891;53.006;6.512;2023-04-30T10:51:19;24.10;87.80
60027;DHT22;45891;53.006;6.512;2023-04-30T10:53:50;24.30;87.10
60027;DHT22;45891;53.006;6.512;2023-04-30T10:56:31;24.90;86.60
60027;DHT22;45891;53.006;6.512;2023-04-30T10:58:59;24.40;83.90
60027;DHT22;45891;53.006;6.512;2023-04-30T11:01:28;24.60;85.70
60027;DHT22;45891;53.006;6.512;2023-04-30T11:04:07;25.20;85.90
60027;DHT22;45891;53.006;6.512;2023-04-30T11:09:41;25.80;81.80
60027;DHT22;45891;53.006;6.512;2023-04-30T11:12:12;25.00;83.90
60027;DHT22;45891;53.006;6.512;2023-04-30T11:14:43;25.20;84.40
60027;DHT22;45891;53.006;6.512;2023-04-30T11:17:10;25.20;83.80
60027;DHT22;45891;53.006;6.512;2023-04-30T11:19:47;24.90;81.00
60027;DHT22;45891;53.006;6.512;2023-04-30T11:22:15;25.00;84.00
60027;DHT22;45891;53.006;6.512;2023-04-30T11:25:03;24.90;83.80
60027;DHT22;45891;53.006;6.512;2023-04-30T11:27:32;25.70;82.40
60027;DHT22;45891;53.006;6.512;2023-04-30T11:29:59;25.90;82.70
60027;DHT22;45891;53.006;6.512;2023-04-30T11:32:32;26.10;82.10
60027;DHT22;45891;53.006;6.512;2023-04-30T11:35:03;25.80;80.80
60027;DHT22;45891;53.006;6.512;2023-04-30T11:37:35;25.30;80.60
60027;DHT22;45891;53.006;6.512;2023-04-30T11:40:05;24.40;79.70
60027;DHT22;45891;53.006;6.512;2023-04-30T11:42:33;24.80;79.70
60027;DHT22;45891;53.006;6.512;2023-04-30T11:45:13;25.00;80.60
60027;DHT22;45891;53.006;6.512;2023-04-30T11:47:49;24.90;80.80
60027;DHT22;45891;53.006;6.512;2023-04-30T11:50:21;24.50;80.20
60027;DHT22;45891;53.006;6.512;2023-04-30T11:52:55;24.00;80.20
60027;DHT22;45891;53.006;6.512;2023-04-30T11:55:23;24.20;81.20
60027;DHT22;45891;53.006;6.512;2023-04-30T11:57:51;24.10;80.40
60027;DHT22;45891;53.006;6.512;2023-04-30T12:00:19;24.40;81.30
60027;DHT22;45891;53.006;6.512;2023-04-30T12:02:47;25.00;83.10
60027;DHT22;45891;53.006;6.512;2023-04-30T12:05:22;25.50;81.20
60027;DHT22;45891;53.006;6.512;2023-04-30T12:07:50;26.00;82.40
60027;DHT22;45891;53.006;6.512;2023-04-30T12:10:18;26.40;80.70
60027;DHT22;45891;53.006;6.512;2023-04-30T12:12:46;25.70;78.60
60027;DHT22;45891;53.006;6.512;2023-04-30T12:15:14;25.70;79.00
60027;DHT22;45891;53.006;6.512;2023-04-30T12:17:41;25.30;79.60
60027;DHT22;45891;53.006;6.512;2023-04-30T12:20:08;25.90;79.30
60027;DHT22;45891;53.006;6.512;2023-04-30T12:22:35;25.80;80.20
60027;DHT22;45891;53.006;6.512;2023-04-30T12:25:13;26.10;80.80
60027;DHT22;45891;53.006;6.512;2023-04-30T12:27:41;26.20;77.80
60027;DHT22;45891;53.006;6.512;2023-04-30T12:30:08;26.40;79.30
60027;DHT22;45891;53.006;6.512;2023-04-30T12:32:43;26.30;78.50
60027;DHT22;45891;53.006;6.512;2023-04-30T12:35:20;26.00;77.90
60027;DHT22;45891;53.006;6.512;2023-04-30T12:38:00;25.60;78.70
60027;DHT22;45891;53.006;6.512;2023-04-30T12:40:27;24.90;75.70
60027;DHT22;45891;53.006;6.512;2023-04-30T12:45:51;25.30;76.60
60027;DHT22;45891;53.006;6.512;2023-04-30T12:48:19;25.60;78.80
60027;DHT22;45891;53.006;6.512;2023-04-30T12:53:21;26.30;79.00
60027;DHT22;45891;53.006;6.512;2023-04-30T12:58:45;27.10;78.20
60027;DHT22;45891;53.006;6.512;2023-04-30T13:01:20;26.80;78.30
60027;DHT22;45891;53.006;6.512;2023-04-30T13:03:47;27.30;78.90
60027;DHT22;45891;53.006;6.512;2023-04-30T13:06:13;27.70;77.50
60027;DHT22;45891;53.006;6.512;2023-04-30T13:08:40;27.80;78.20
60027;DHT22;45891;53.006;6.512;2023-04-30T13:11:06;27.70;75.10
60027;DHT22;45891;53.006;6.512;2023-04-30T13:13:32;27.30;77.60
60027;DHT22;45891;53.006;6.512;2023-04-30T13:15:59;27.20;77.70
60027;DHT22;45891;53.006;6.512;2023-04-30T13:18:27;27.30;78.20
60027;DHT22;45891;53.006;6.512;2023-04-30T13:20:53;27.50;76.50
60027;DHT22;45891;53.006;6.512;2023-04-30T13:23:19;26.80;75.90
60027;DHT22;45891;53.006;6.512;2023-04-30T13:25:46;26.80;78.00
60027;DHT22;45891;53.006;6.512;2023-04-30T13:28:12;27.30;79.10
60027;DHT22;45891;53.006;6.512;2023-04-30T13:30:38;26.70;77.50
60027;DHT22;45891;53.006;6.512;2023-04-30T13:33:06;26.70;74.90
60027;DHT22;45891;53.006;6.512;2023-04-30T13:35:32;26.60;76.50
60027;DHT22;45891;53.006;6.512;2023-04-30T13:37:58;27.00;77.00
60027;DHT22;45891;53.006;6.512;2023-04-30T13:40:25;27.10;76.60
60027;DHT22;45891;53.006;6.512;2023-04-30T13:42:51;27.60;77.50
60027;DHT22;45891;53.006;6.512;2023-04-30T13:45:17;28.20;77.30
60027;DHT22;45891;53.006;6.512;2023-04-30T13:47:43;28.60;77.00
60027;DHT22;45891;53.006;6.512;2023-04-30T13:50:10;28.70;76.10
60027;DHT22;45891;53.006;6.512;2023-04-30T13:52:36;28.40;73.80
60027;DHT22;45891;53.006;6.512;2023-04-30T13:55:02;27.50;75.10
60027;DHT22;45891;53.006;6.512;2023-04-30T13:57:29;26.80;73.40
60027;DHT22;45891;53.006;6.512;2023-04-30T13:59:58;27.00;74.00
60027;DHT22;45891;53.006;6.512;2023-04-30T14:02:25;26.90;73.60
60027;DHT22;45891;53.006;6.512;2023-04-30T14:04:55;26.50;71.80
60027;DHT22;45891;53.006;6.512;2023-04-30T14:07:22;27.00;74.50
60027;DHT22;45891;53.006;6.512;2023-04-30T14:09:48;27.20;73.10
60027;DHT22;45891;53.006;6.512;2023-04-30T14:12:15;27.40;74.60
60027;DHT22;45891;53.006;6.512;2023-04-30T14:14:41;27.70;75.00
60027;DHT22;45891;53.006;6.512;2023-04-30T14:17:07;28.10;74.00
60027;DHT22;45891;53.006;6.512;2023-04-30T14:19:33;28.30;73.30
60027;DHT22;45891;53.006;6.512;2023-04-30T14:21:59;28.40;74.50
60027;DHT22;45891;53.006;6.512;2023-04-30T14:24:26;27.70;70.50
60027;DHT22;45891;53.006;6.512;2023-04-30T14:26:53;27.70;70.00
60027;DHT22;45891;53.006;6.512;2023-04-30T14:29:19;26.90;70.10
60027;DHT22;45891;53.006;6.512;2023-04-30T14:31:45;26.50;70.50
60027;DHT22;45891;53.006;6.512;2023-04-30T14:34:11;26.00;71.30
60027;DHT22;45891;53.006;6.512;2023-04-30T14:36:38;26.60;72.30
60027;DHT22;45891;53.006;6.512;2023-04-30T14:39:04;27.20;74.30
60027;DHT22;45891;53.006;6.512;2023-04-30T14:41:36;27.00;71.10
60027;DHT22;45891;53.006;6.512;2023-04-30T14:44:03;26.70;70.10
60027;DHT22;45891;53.006;6.512;2023-04-30T14:46:29;26.90;72.50
60027;DHT22;45891;53.006;6.512;2023-04-30T14:48:56;26.20;71.50
60027;DHT22;45891;53.006;6.512;2023-04-30T14:51:22;25.30;71.40
60027;DHT22;45891;53.006;6.512;2023-04-30T14:53:48;25.20;72.20
60027;DHT22;45891;53.006;6.512;2023-04-30T14:56:14;25.80;71.00
60027;DHT22;45891;53.006;6.512;2023-04-30T14:58:41;25.60;71.20
60027;DHT22;45891;53.006;6.512;2023-04-30T15:01:07;26.10;70.70
60027;DHT22;45891;53.006;6.512;2023-04-30T15:03:33;26.80;71.30
60027;DHT22;45891;53.006;6.512;2023-04-30T15:05:59;27.20;71.30
60027;DHT22;45891;53.006;6.512;2023-04-30T15:08:25;27.10;70.90
60027;DHT22;45891;53.006;6.512;2023-04-30T15:10:51;27.40;70.40
60027;DHT22;45891;53.006;6.512;2023-04-30T15:13:17;27.80;70.00
60027;DHT22;45891;53.006;6.512;2023-04-30T15:15:44;26.90;69.60
60027;DHT22;45891;53.006;6.512;2023-04-30T15:18:11;26.70;70.30
60027;DHT22;45891;53.006;6.512;2023-04-30T15:20:39;26.90;70.70
60027;DHT22;45891;53.006;6.512;2023-04-30T15:23:05;26.70;70.70
60027;DHT22;45891;53.006;6.512;2023-04-30T15:25:33;27.00;71.30
60027;DHT22;45891;53.006;6.512;2023-04-30T15:27:59;27.30;72.20
60027;DHT22;45891;53.006;6.512;2023-04-30T15:30:26;27.50;70.40
60027;DHT22;45891;53.006;6.512;2023-04-30T15:32:52;27.40;70.80
60027;DHT22;45891;53.006;6.512;2023-04-30T15:35:18;26.90;68.80
60027;DHT22;45891;53.006;6.512;2023-04-30T15:37:44;26.60;70.20
60027;DHT22;45891;53.006;6.512;2023-04-30T15:40:10;26.30;69.40
60027;DHT22;45891;53.006;6.512;2023-04-30T15:42:40;26.40;69.10
60027;DHT22;45891;53.006;6.512;2023-04-30T15:45:07;26.00;69.50
60027;DHT22;45891;53.006;6.512;2023-04-30T15:47:33;26.20;71.90
60027;DHT22;45891;53.006;6.512;2023-04-30T15:49:59;26.60;70.80
60027;DHT22;45891;53.006;6.512;2023-04-30T15:52:25;26.90;71.30
60027;DHT22;45891;53.006;6.512;2023-04-30T15:54:51;26.60;71.80
60027;DHT22;45891;53.006;6.512;2023-04-30T15:57:17;26.60;71.40
60027;DHT22;45891;53.006;6.512;2023-04-30T15:59:44;26.70;71.10
60027;DHT22;45891;53.006;6.512;2023-04-30T16:02:10;26.70;70.90